createdAt,value
2017-11-19T00:01:00.559Z,12.00
2017-11-19T00:06:00.619Z,15.25
2017-11-19T00:08:26.867Z,14.18
2017-11-19T00:10:53.166Z,13.85
2017-11-19T00:13:19.498Z,12.82
2017-11-19T00:15:45.813Z,13.62
2017-11-19T00:18:12.154Z,14.57
2017-11-19T00:20:38.539Z,14.70
2017-11-19T00:23:04.817Z,14.73
2017-11-19T00:25:32.673Z,14.10
2017-11-19T00:28:00.485Z,13.65
2017-11-19T00:30:26.789Z,13.52
2017-11-19T00:32:53.055Z,14.30
2017-11-19T00:35:20.100Z,13.35
2017-11-19T00:37:46.450Z,13.18
2017-11-19T00:40:12.739Z,14.15
2017-11-19T00:42:40.603Z,14.27
2017-11-19T00:45:07.809Z,16.00
2017-11-19T00:47:34.255Z,16.00
2017-11-19T00:50:00.561Z,16.50
2017-11-19T00:52:26.827Z,16.48
2017-11-19T00:54:53.073Z,17.85
2017-11-19T00:57:19.407Z,17.05
2017-11-19T00:59:45.690Z,16.75
2017-11-19T01:02:12.020Z,16.85
2017-11-19T01:04:38.112Z,18.40
2017-11-19T01:07:04.317Z,20.10
2017-11-19T01:09:31.149Z,20.62
2017-11-19T01:11:57.334Z,19.83
2017-11-19T01:14:23.480Z,19.80
2017-11-19T01:16:49.606Z,19.40
2017-11-19T01:19:15.725Z,16.00
2017-11-19T01:21:41.956Z,15.52
2017-11-19T01:24:08.018Z,15.63
2017-11-19T01:26:34.098Z,15.63
2017-11-19T01:29:01.077Z,14.18
2017-11-19T01:31:27.933Z,15.75
2017-11-19T01:33:54.932Z,16.30
2017-11-19T01:36:21.026Z,13.82
2017-11-19T01:38:47.217Z,14.40
2017-11-19T01:41:13.275Z,14.50
2017-11-19T01:43:39.360Z,11.40
2017-11-19T01:46:06.257Z,12.65
2017-11-19T01:48:32.326Z,11.77
2017-11-19T01:50:58.452Z,11.23
2017-11-19T01:53:24.555Z,11.23
2017-11-19T01:55:50.648Z,10.25
2017-11-19T01:58:16.717Z,11.15
2017-11-19T02:00:42.808Z,10.82
2017-11-19T02:03:09.031Z,11.35
2017-11-19T02:05:35.100Z,11.60
2017-11-19T02:08:01.172Z,11.45
2017-11-19T02:10:27.266Z,11.12
2017-11-19T02:12:53.320Z,10.38
2017-11-19T02:15:19.426Z,10.40
2017-11-19T02:17:46.227Z,10.95
2017-11-19T02:20:12.310Z,10.00
2017-11-19T02:22:38.397Z,11.90
2017-11-19T02:25:04.514Z,9.82
2017-11-19T02:27:31.374Z,10.68
2017-11-19T02:29:58.944Z,10.50
2017-11-19T02:32:25.797Z,9.60
2017-11-19T02:34:52.677Z,9.98
2017-11-19T02:37:19.491Z,9.20
2017-11-19T02:39:45.554Z,10.35
2017-11-19T02:42:12.382Z,8.75
2017-11-19T02:44:38.600Z,9.75
2017-11-19T02:47:04.721Z,9.90
2017-11-19T02:49:30.853Z,8.60
2017-11-19T02:51:56.912Z,8.60
2017-11-19T02:54:23.793Z,9.00
2017-11-19T02:56:49.885Z,9.05
2017-11-19T02:59:16.000Z,9.93
2017-11-19T03:01:42.080Z,9.40
2017-11-19T03:04:08.154Z,9.10
2017-11-19T03:06:35.290Z,9.20
2017-11-19T03:09:01.369Z,7.22
2017-11-19T03:11:28.250Z,8.13
2017-11-19T03:13:54.353Z,7.80
2017-11-19T03:16:21.195Z,7.78
2017-11-19T03:18:47.266Z,7.00
2017-11-19T03:21:13.381Z,7.87
2017-11-19T03:23:39.552Z,7.40
2017-11-19T03:26:05.662Z,9.52
2017-11-19T03:28:32.491Z,7.20
2017-11-19T03:30:58.599Z,7.15
2017-11-19T03:33:24.673Z,6.80
2017-11-19T03:35:50.758Z,6.95
2017-11-19T03:38:16.820Z,6.85
2017-11-19T03:40:42.894Z,7.12
2017-11-19T03:43:09.029Z,6.65
2017-11-19T03:45:35.116Z,6.60
2017-11-19T03:48:01.211Z,7.03
2017-11-19T03:50:27.282Z,6.25
2017-11-19T03:52:53.387Z,6.47
2017-11-19T03:55:20.193Z,7.45
2017-11-19T03:57:46.259Z,8.02
2017-11-19T04:00:12.323Z,7.47
2017-11-19T04:02:39.109Z,8.75
2017-11-19T04:05:05.207Z,9.50
2017-11-19T04:07:31.486Z,9.45
2017-11-19T04:09:57.874Z,9.30
2017-11-19T04:12:24.133Z,9.55
2017-11-19T04:14:50.451Z,10.18
2017-11-19T04:17:16.706Z,11.75
2017-11-19T04:19:42.944Z,9.85
2017-11-19T04:22:09.224Z,10.73
2017-11-19T04:24:36.302Z,10.60
2017-11-19T04:27:03.837Z,13.07
2017-11-19T04:29:30.110Z,11.65
2017-11-19T04:31:56.404Z,12.52
2017-11-19T04:34:23.467Z,13.05
2017-11-19T04:36:49.756Z,12.32
2017-11-19T04:39:16.011Z,11.45
2017-11-19T04:41:42.395Z,13.05
2017-11-19T04:44:08.726Z,12.00
2017-11-19T04:46:35.717Z,11.12
2017-11-19T04:49:02.036Z,10.93
2017-11-19T04:51:28.268Z,10.32
2017-11-19T04:53:54.531Z,10.38
2017-11-19T04:56:21.523Z,10.35
2017-11-19T04:58:47.790Z,10.35
2017-11-19T05:01:14.065Z,10.48
2017-11-19T05:03:40.357Z,10.68
2017-11-19T05:06:06.663Z,10.27
2017-11-19T05:08:34.705Z,9.65
2017-11-19T05:11:01.751Z,9.77
2017-11-19T05:13:27.979Z,11.63
2017-11-19T05:15:54.275Z,8.57
2017-11-19T05:18:20.535Z,8.38
2017-11-19T05:20:47.580Z,8.57
2017-11-19T05:23:13.853Z,8.52
2017-11-19T05:25:40.838Z,8.00
2017-11-19T05:28:07.116Z,7.72
2017-11-19T05:30:33.351Z,8.18
2017-11-19T05:33:00.381Z,7.60
2017-11-19T05:35:27.364Z,6.87
2017-11-19T05:37:53.653Z,6.85
2017-11-19T05:40:20.639Z,7.35
2017-11-19T05:42:46.929Z,5.95
2017-11-19T05:45:13.251Z,7.12
2017-11-19T05:47:39.553Z,5.20
2017-11-19T05:50:05.832Z,6.90
2017-11-19T05:52:32.068Z,5.97
2017-11-19T05:54:58.396Z,5.15
2017-11-19T05:57:24.665Z,5.35
2017-11-19T05:59:50.959Z,5.28
2017-11-19T06:02:17.227Z,5.70
2017-11-19T06:04:43.512Z,5.40
2017-11-19T06:07:10.530Z,5.93
2017-11-19T06:09:36.782Z,6.10
2017-11-19T06:12:03.029Z,8.30
2017-11-19T06:14:29.342Z,7.80
2017-11-19T06:16:55.594Z,8.13
2017-11-19T06:19:21.855Z,9.77
2017-11-19T06:21:48.137Z,8.80
2017-11-19T06:24:14.440Z,7.90
2017-11-19T06:26:41.488Z,7.90
2017-11-19T06:29:07.745Z,7.15
2017-11-19T06:31:34.954Z,6.37
2017-11-19T06:34:01.258Z,4.93
2017-11-19T06:36:27.547Z,5.53
2017-11-19T06:38:53.813Z,5.97
2017-11-19T06:41:20.069Z,5.55
2017-11-19T06:43:46.373Z,6.07
2017-11-19T06:46:12.658Z,6.97
2017-11-19T06:48:39.682Z,4.97
2017-11-19T06:51:05.991Z,5.32
2017-11-19T06:53:32.297Z,5.25
2017-11-19T06:55:58.630Z,4.93
2017-11-19T06:58:24.931Z,4.37
2017-11-19T07:00:51.253Z,4.75
2017-11-19T07:03:17.558Z,5.95
2017-11-19T07:05:44.641Z,4.95
2017-11-19T07:08:10.955Z,5.35
2017-11-19T07:10:37.226Z,4.00
2017-11-19T07:13:03.583Z,5.03
2017-11-19T07:15:30.000Z,4.70
2017-11-19T07:17:56.360Z,5.18
2017-11-19T07:20:22.737Z,5.00
2017-11-19T07:22:49.013Z,4.10
2017-11-19T07:25:15.337Z,5.12
2017-11-19T07:27:41.587Z,4.28
2017-11-19T07:30:07.905Z,4.62
2017-11-19T07:32:34.334Z,4.00
2017-11-19T07:35:00.640Z,4.18
2017-11-19T07:37:26.943Z,4.28
2017-11-19T07:39:53.981Z,3.35
2017-11-19T07:42:20.325Z,3.62
2017-11-19T07:44:47.344Z,3.65
2017-11-19T07:47:13.623Z,4.45
2017-11-19T07:49:39.918Z,3.33
2017-11-19T07:52:06.194Z,3.55
2017-11-19T07:54:32.505Z,3.90
2017-11-19T07:56:58.824Z,3.80
2017-11-19T07:59:25.050Z,4.80
2017-11-19T08:01:52.038Z,4.47
2017-11-19T08:04:18.317Z,4.37
2017-11-19T08:06:44.679Z,3.85
2017-11-19T08:09:11.686Z,3.17
2017-11-19T08:11:38.039Z,4.10
2017-11-19T08:14:04.363Z,3.92
2017-11-19T08:16:30.646Z,4.20
2017-11-19T08:18:56.911Z,3.40
2017-11-19T08:21:23.196Z,3.87
2017-11-19T08:23:49.467Z,3.40
2017-11-19T08:26:16.498Z,3.55
2017-11-19T08:28:43.814Z,3.95
2017-11-19T08:31:10.830Z,2.70
2017-11-19T08:33:37.163Z,3.25
2017-11-19T08:36:03.439Z,3.67
2017-11-19T08:38:30.438Z,3.90
2017-11-19T08:40:56.773Z,4.50
2017-11-19T08:43:23.049Z,3.83
2017-11-19T08:45:49.346Z,3.55
2017-11-19T08:48:15.607Z,3.95
2017-11-19T08:50:41.947Z,3.65
2017-11-19T08:53:09.000Z,3.42
2017-11-19T08:55:35.322Z,3.75
2017-11-19T08:58:02.345Z,4.62
2017-11-19T09:00:28.646Z,3.20
2017-11-19T09:02:55.716Z,3.65
2017-11-19T09:05:22.012Z,3.08
2017-11-19T09:07:48.323Z,4.15
2017-11-19T09:10:14.741Z,3.95
2017-11-19T09:12:41.056Z,4.12
2017-11-19T09:15:08.100Z,4.35
2017-11-19T09:17:35.134Z,4.00
2017-11-19T09:20:01.458Z,4.20
2017-11-19T09:22:27.728Z,4.40
2017-11-19T09:24:54.025Z,4.20
2017-11-19T09:27:21.159Z,4.75
2017-11-19T09:29:47.551Z,4.37
2017-11-19T09:32:13.870Z,4.30
2017-11-19T09:34:40.250Z,4.15
2017-11-19T09:37:07.696Z,4.00
2017-11-19T09:39:37.249Z,4.28
2017-11-19T09:42:04.389Z,3.90
2017-11-19T09:44:30.715Z,4.20
2017-11-19T09:46:56.995Z,3.92
2017-11-19T09:49:23.449Z,4.65
2017-11-19T09:51:49.706Z,5.20
2017-11-19T09:54:15.958Z,5.40
2017-11-19T09:56:42.222Z,4.28
2017-11-19T09:59:08.600Z,4.85
2017-11-19T10:01:34.928Z,3.20
2017-11-19T10:04:01.256Z,3.78
2017-11-19T10:06:27.611Z,4.15
2017-11-19T10:08:54.715Z,4.60
2017-11-19T10:11:21.014Z,4.60
2017-11-19T10:13:47.344Z,3.80
2017-11-19T10:16:13.702Z,5.43
2017-11-19T10:18:39.956Z,6.20
2017-11-19T10:21:06.236Z,4.45
2017-11-19T10:23:32.737Z,4.70
2017-11-19T10:25:59.031Z,4.57
2017-11-19T10:28:26.848Z,5.30
2017-11-19T10:30:53.159Z,4.60
2017-11-19T10:33:19.427Z,4.40
2017-11-19T10:35:45.728Z,3.83
2017-11-19T10:38:12.036Z,4.05
2017-11-19T10:40:39.183Z,3.50
2017-11-19T10:43:06.396Z,3.70
2017-11-19T10:45:32.672Z,3.85
2017-11-19T10:47:58.956Z,3.17
2017-11-19T10:50:25.218Z,3.62
2017-11-19T10:52:51.512Z,3.47
2017-11-19T10:55:17.883Z,3.95
2017-11-19T10:57:45.059Z,5.00
2017-11-19T11:00:12.104Z,4.32
2017-11-19T11:02:38.419Z,4.68
2017-11-19T11:05:04.871Z,5.35
2017-11-19T11:07:31.151Z,4.90
2017-11-19T11:09:57.434Z,4.20
2017-11-19T11:12:23.761Z,4.40
2017-11-19T11:14:50.067Z,3.95
2017-11-19T11:17:17.071Z,3.60
2017-11-19T11:19:43.401Z,3.70
2017-11-19T11:22:09.726Z,3.60
2017-11-19T11:24:38.052Z,3.75
2017-11-19T11:27:06.094Z,4.20
2017-11-19T11:29:33.200Z,4.20
2017-11-19T11:31:59.467Z,4.40
2017-11-19T11:34:26.536Z,4.32
2017-11-19T11:36:52.830Z,3.65
2017-11-19T11:39:19.116Z,3.80
2017-11-19T11:41:45.394Z,4.65
2017-11-19T11:44:11.730Z,4.40
2017-11-19T11:46:38.815Z,4.00
2017-11-19T11:49:05.119Z,3.60
2017-11-19T11:51:32.212Z,3.85
2017-11-19T11:53:59.245Z,6.25
2017-11-19T11:56:25.548Z,4.00
2017-11-19T11:58:51.801Z,4.18
2017-11-19T12:01:18.822Z,3.60
2017-11-19T12:03:45.279Z,4.10
2017-11-19T12:06:11.567Z,3.63
2017-11-19T12:08:38.619Z,4.15
2017-11-19T12:11:04.956Z,5.03
2017-11-19T12:13:31.241Z,3.50
2017-11-19T12:15:57.519Z,3.83
2017-11-19T12:18:23.779Z,4.73
2017-11-19T12:20:50.141Z,4.70
2017-11-19T12:23:16.491Z,5.10
2017-11-19T12:25:43.543Z,4.70
2017-11-19T12:28:09.807Z,4.10
2017-11-19T12:30:36.165Z,4.53
2017-11-19T12:33:02.488Z,5.67
2017-11-19T12:35:28.846Z,5.47
2017-11-19T12:37:55.179Z,6.70
2017-11-19T12:40:22.346Z,5.57
2017-11-19T12:42:48.639Z,3.67
2017-11-19T12:45:22.407Z,5.20
2017-11-19T12:47:49.470Z,4.30
2017-11-19T12:50:15.834Z,4.05
2017-11-19T12:52:42.074Z,4.00
2017-11-19T12:55:08.331Z,4.60
2017-11-19T12:57:34.629Z,4.10
2017-11-19T13:00:01.686Z,3.40
2017-11-19T13:02:27.970Z,3.57
2017-11-19T13:04:54.267Z,3.27
2017-11-19T13:07:21.291Z,4.20
2017-11-19T13:09:47.557Z,3.60
2017-11-19T13:12:13.821Z,3.63
2017-11-19T13:14:40.066Z,2.93
2017-11-19T13:17:07.128Z,3.80
2017-11-19T13:19:33.404Z,2.70
2017-11-19T13:21:59.683Z,3.40
2017-11-19T13:24:25.982Z,3.30
2017-11-19T13:26:52.242Z,2.83
2017-11-19T13:29:18.611Z,2.80
2017-11-19T13:31:44.891Z,3.20
2017-11-19T13:34:11.903Z,3.30
2017-11-19T13:36:38.144Z,2.77
2017-11-19T13:39:04.426Z,2.17
2017-11-19T13:41:31.477Z,2.60
2017-11-19T13:43:57.798Z,3.00
2017-11-19T13:46:24.240Z,3.13
2017-11-19T13:48:51.392Z,3.17
2017-11-19T13:51:17.699Z,4.13
2017-11-19T13:53:44.097Z,3.40
2017-11-19T13:56:12.507Z,3.00
2017-11-19T13:58:39.397Z,3.07
2017-11-19T14:01:05.714Z,2.57
2017-11-19T14:03:32.079Z,2.83
2017-11-19T14:05:59.155Z,2.90
2017-11-19T14:08:25.416Z,2.90
2017-11-19T14:10:51.676Z,2.80
2017-11-19T14:13:17.979Z,3.27
2017-11-19T14:15:44.243Z,2.60
2017-11-19T14:18:10.663Z,2.40
2017-11-19T14:20:37.115Z,2.20
2017-11-19T14:23:03.390Z,2.00
2017-11-19T14:25:29.985Z,2.53
2017-11-19T14:27:56.353Z,2.62
2017-11-19T14:30:22.710Z,3.20
2017-11-19T14:32:49.726Z,2.10
2017-11-19T14:35:15.989Z,2.47
2017-11-19T14:37:42.452Z,2.30
2017-11-19T14:40:08.779Z,2.10
2017-11-19T14:42:35.060Z,1.80
2017-11-19T14:45:01.368Z,2.27
2017-11-19T14:47:27.630Z,3.87
2017-11-19T14:49:54.687Z,1.90
2017-11-19T14:52:21.707Z,1.70
2017-11-19T14:54:48.003Z,2.43
2017-11-19T14:57:14.246Z,2.72
2017-11-19T14:59:40.514Z,1.97
2017-11-19T15:02:07.544Z,3.90
2017-11-19T15:04:34.559Z,2.47
2017-11-19T15:07:00.893Z,2.33
2017-11-19T15:09:27.210Z,2.80
2017-11-19T15:11:53.484Z,2.42
2017-11-19T15:14:19.802Z,2.80
2017-11-19T15:16:46.787Z,2.42
2017-11-19T15:19:13.107Z,2.42
2017-11-19T15:21:39.399Z,2.30
2017-11-19T15:24:05.895Z,3.15
2017-11-19T15:26:32.229Z,3.20
2017-11-19T15:28:59.248Z,2.58
2017-11-19T15:31:25.602Z,2.60
2017-11-19T15:33:52.082Z,2.22
2017-11-19T15:36:18.370Z,2.53
2017-11-19T15:38:44.657Z,2.95
2017-11-19T15:41:10.915Z,2.62
2017-11-19T15:43:37.949Z,2.62
2017-11-19T15:46:05.038Z,3.40
2017-11-19T15:48:32.056Z,3.50
2017-11-19T15:50:58.319Z,2.37
2017-11-19T15:53:25.373Z,3.15
2017-11-19T15:55:51.708Z,3.05
2017-11-19T15:58:18.107Z,3.17
2017-11-19T16:00:46.055Z,3.37
2017-11-19T16:03:12.378Z,3.58
2017-11-19T16:05:38.622Z,3.10
2017-11-19T16:08:04.980Z,4.32
2017-11-19T16:10:31.382Z,4.15
2017-11-19T16:12:58.403Z,7.20
2017-11-19T16:15:24.715Z,3.90
2017-11-19T16:17:51.129Z,3.40
2017-11-19T16:20:17.391Z,3.53
2017-11-19T16:22:43.643Z,4.05
2017-11-19T16:25:09.888Z,4.03
2017-11-19T16:27:37.024Z,4.45
2017-11-19T16:30:03.318Z,3.55
2017-11-19T16:32:30.770Z,3.95
2017-11-19T16:34:57.144Z,3.15
2017-11-19T16:37:23.668Z,3.83
2017-11-19T16:39:50.040Z,3.35
2017-11-19T16:42:16.293Z,3.83
2017-11-19T16:44:42.675Z,2.83
2017-11-19T16:47:09.059Z,2.83
2017-11-19T16:49:35.471Z,3.37
2017-11-19T16:52:01.842Z,4.43
2017-11-19T16:54:28.911Z,3.28
2017-11-19T16:56:55.244Z,3.83
2017-11-19T16:59:21.591Z,3.28
2017-11-19T17:01:47.935Z,3.83
2017-11-19T17:04:14.474Z,4.28
2017-11-19T17:06:41.577Z,4.30
2017-11-19T17:09:09.086Z,4.12
2017-11-19T17:11:35.795Z,4.32
2017-11-19T17:14:02.066Z,4.22
2017-11-19T17:16:29.195Z,3.65
2017-11-19T17:18:55.508Z,3.53
2017-11-19T17:21:21.834Z,3.40
2017-11-19T17:23:48.113Z,4.35
2017-11-19T17:26:14.487Z,4.43
2017-11-19T17:28:40.896Z,4.65
2017-11-19T17:31:07.222Z,5.45
2017-11-19T17:33:33.485Z,7.15
2017-11-19T17:36:05.878Z,3.97
2017-11-19T17:38:32.187Z,4.35
2017-11-19T17:41:01.949Z,5.22
2017-11-19T17:43:28.230Z,4.50
2017-11-19T17:45:54.496Z,4.80
2017-11-19T17:48:25.524Z,4.57
2017-11-19T17:50:51.827Z,6.25
2017-11-19T17:53:18.150Z,4.40
2017-11-19T17:55:44.501Z,4.70
2017-11-19T17:58:10.807Z,4.57
2017-11-19T18:00:37.195Z,4.53
2017-11-19T18:03:03.524Z,4.80
2017-11-19T18:05:29.851Z,3.97
2017-11-19T18:07:56.168Z,5.10
2017-11-19T18:10:23.275Z,3.83
2017-11-19T18:12:49.708Z,4.35
2017-11-19T18:15:16.115Z,5.12
2017-11-19T18:17:43.178Z,5.07
2017-11-19T18:20:09.468Z,4.22
2017-11-19T18:22:35.986Z,4.72
2017-11-19T18:25:02.279Z,4.28
2017-11-19T18:27:28.580Z,4.60
2017-11-19T18:29:54.793Z,5.55
2017-11-19T18:32:21.866Z,4.40
2017-11-19T18:34:48.138Z,4.40
2017-11-19T18:37:14.482Z,4.60
2017-11-19T18:39:40.627Z,4.03
2017-11-19T18:42:08.423Z,4.70
2017-11-19T18:44:34.699Z,5.70
2017-11-19T18:47:00.970Z,5.40
2017-11-19T18:49:27.955Z,5.15
2017-11-19T18:51:54.253Z,6.93
2017-11-19T18:54:21.367Z,6.20
2017-11-19T18:56:47.640Z,5.22
2017-11-19T18:59:13.863Z,5.37
2017-11-19T19:01:40.099Z,5.72
2017-11-19T19:04:07.192Z,7.70
2017-11-19T19:06:33.501Z,4.40
2017-11-19T19:08:59.751Z,3.78
2017-11-19T19:11:26.183Z,4.10
2017-11-19T19:13:52.459Z,4.75
2017-11-19T19:16:19.560Z,3.15
2017-11-19T19:18:45.839Z,5.05
2017-11-19T19:21:12.092Z,3.90
2017-11-19T19:23:38.471Z,3.42
2017-11-19T19:26:04.766Z,3.90
2017-11-19T19:28:31.056Z,4.10
2017-11-19T19:30:57.422Z,4.85
2017-11-19T19:33:23.737Z,5.28
2017-11-19T19:35:50.020Z,5.10
2017-11-19T19:38:17.030Z,6.47
2017-11-19T19:40:43.302Z,5.55
2017-11-19T19:43:09.673Z,5.05
2017-11-19T19:45:36.199Z,4.37
2017-11-19T19:48:02.462Z,3.72
2017-11-19T19:50:28.715Z,3.53
2017-11-19T19:52:54.948Z,4.95
2017-11-19T19:55:21.194Z,4.18
2017-11-19T19:57:47.427Z,5.20
2017-11-19T20:00:13.690Z,5.12
2017-11-19T20:02:39.928Z,4.15
2017-11-19T20:05:06.219Z,4.85
2017-11-19T20:07:32.502Z,4.03
2017-11-19T20:09:58.764Z,4.78
2017-11-19T20:12:25.766Z,4.55
2017-11-19T20:14:52.063Z,5.05
2017-11-19T20:17:18.323Z,5.28
2017-11-19T20:19:44.686Z,5.95
2017-11-19T20:22:11.135Z,6.85
2017-11-19T20:24:37.450Z,6.37
2017-11-19T20:27:04.454Z,5.20
2017-11-19T20:29:30.735Z,5.53
2017-11-19T20:31:57.749Z,5.50
2017-11-19T20:34:24.012Z,5.47
2017-11-19T20:36:50.407Z,6.85
2017-11-19T20:39:16.710Z,5.97
2017-11-19T20:41:42.997Z,5.53
2017-11-19T20:44:09.301Z,4.85
2017-11-19T20:46:36.883Z,6.75
2017-11-19T20:49:03.894Z,6.03
2017-11-19T20:51:30.166Z,5.45
2017-11-19T20:53:56.504Z,7.70
2017-11-19T20:56:22.934Z,6.07
2017-11-19T20:58:50.094Z,5.05
2017-11-19T21:01:17.188Z,4.80
2017-11-19T21:03:44.295Z,4.75
2017-11-19T21:06:10.607Z,7.43
2017-11-19T21:08:37.124Z,4.82
2017-11-19T21:11:03.690Z,5.68
2017-11-19T21:13:30.004Z,5.50
2017-11-19T21:15:56.302Z,5.93
2017-11-19T21:18:22.566Z,5.57
2017-11-19T21:20:48.856Z,5.78
2017-11-19T21:23:15.128Z,5.35
2017-11-19T21:25:41.483Z,5.70
2017-11-19T21:28:07.783Z,5.05
2017-11-19T21:30:34.026Z,4.68
2017-11-19T21:33:00.303Z,6.12
2017-11-19T21:35:26.546Z,5.20
2017-11-19T21:37:52.895Z,5.97
2017-11-19T21:40:19.495Z,6.22
2017-11-19T21:42:46.524Z,6.90
2017-11-19T21:45:12.781Z,6.55
2017-11-19T21:47:39.724Z,7.22
2017-11-19T21:50:06.049Z,5.50
2017-11-19T21:52:32.410Z,5.35
2017-11-19T21:54:58.678Z,5.40
2017-11-19T21:57:25.687Z,5.47
2017-11-19T21:59:51.944Z,5.60
2017-11-19T22:02:18.285Z,5.28
2017-11-19T22:04:44.629Z,5.43
2017-11-19T22:07:10.922Z,6.22
2017-11-19T22:09:38.014Z,6.35
2017-11-19T22:12:04.357Z,5.45
2017-11-19T22:14:30.679Z,7.25
2017-11-19T22:16:56.957Z,6.95
2017-11-19T22:19:23.242Z,7.10
2017-11-19T22:21:50.238Z,6.75
2017-11-19T22:24:16.549Z,7.22
2017-11-19T22:26:42.825Z,6.68
2017-11-19T22:29:09.077Z,7.10
2017-11-19T22:31:35.350Z,7.22
2017-11-19T22:34:01.603Z,7.40
2017-11-19T22:36:28.591Z,7.95
2017-11-19T22:38:54.861Z,7.37
2017-11-19T22:41:21.182Z,7.03
2017-11-19T22:43:47.471Z,7.12
2017-11-19T22:46:13.758Z,7.25
2017-11-19T22:48:40.006Z,7.20
2017-11-19T22:51:06.302Z,6.78
2017-11-19T22:53:33.314Z,6.93
2017-11-19T22:55:59.563Z,6.87
2017-11-19T22:58:25.871Z,6.35
2017-11-19T23:00:52.068Z,5.95
2017-11-19T23:03:18.928Z,5.55
2017-11-19T23:05:45.945Z,5.00
2017-11-19T23:08:12.213Z,5.43
2017-11-19T23:10:39.388Z,6.85
2017-11-19T23:13:05.715Z,6.82
2017-11-19T23:15:32.006Z,7.50
2017-11-19T23:17:58.295Z,6.53
2017-11-19T23:20:24.358Z,6.43
2017-11-19T23:22:51.201Z,6.72
2017-11-19T23:25:18.094Z,6.75
2017-11-19T23:27:44.188Z,6.10
2017-11-19T23:30:10.267Z,6.15
2017-11-19T23:32:36.403Z,5.90
2017-11-19T23:35:02.471Z,6.95
2017-11-19T23:37:28.546Z,6.00
2017-11-19T23:39:54.647Z,5.40
2017-11-19T23:42:20.717Z,5.95
2017-11-19T23:44:46.872Z,6.70
2017-11-19T23:47:13.734Z,5.80
2017-11-19T23:49:40.531Z,5.87
2017-11-19T23:52:06.618Z,5.25
2017-11-19T23:54:33.555Z,6.10
2017-11-19T23:56:59.644Z,7.47
2017-11-19T23:59:25.715Z,5.80
